Khabarovsk-Novy Airport
UHHH : rendu visible

Aérodrome :











RETROUVEZ-NOUS SUR...

 
LOGIN :

S'inscrire | Disclaimer

   EN    FR    IT 

 









Légende :    VFR   VFR Marginal   IFR   IFR Intensif   IFR Très Intensif
Visi : 
Plafond : 
>= 8 km
>= 3000ft
5 à 8 km
1000 à 3000 ft
1500m à 5 km
500 à 1000 ft
800 à 1500m
200 à 500 ft
< 800m
< 200 ft
Symboles :   Orages  Brouillard  Fortes neiges  Fortes précipitations  Vent > 20 kt






- Altitude de l'aérodrome : 244 ft
- Code IATA : KHV


UHHH - Khabarovsk-Novy

DERNIER METAR :
  • 051730Z 26007MPS CAVOK M10/M15 Q1022 R23L/090060 NOSIG RMK QFE760/1013

METARs EXPIRÉS :
  • 051700Z 26006MPS CAVOK M10/M15 Q1022 R23L/090060 NOSIG RMK QFE760/1013
  • 051630Z 25008MPS CAVOK M10/M15 Q1022 R23L/090060 NOSIG RMK QFE760/1013
  • 051600Z 26008MPS CAVOK M10/M15 Q1021 R23L/090060 NOSIG RMK QFE759/1013
  • 051530Z 27007MPS CAVOK M10/M15 Q1021 R23L/090060 NOSIG RMK QFE759/1013
  • 051500Z 27008MPS CAVOK M09/M14 Q1021 R23L/090060 NOSIG RMK QFE759/1013

TAF TAF UHHH
Valide du 05 à 18h jusqu'au 07 à 00h UTC


051700Z 0518/0624 24006MPS CAVOK
FM060000 22003MPS 9999 SCT025
FIR UHHH / Asie



MET'MAP, la Météo Aéronautique d'un coup d'oeil ! - Copyright ORBIFLY Décembre 2007 - Disclaimer

ORBIFLY MET'MAP TEAM :

Programmation & Développement : Alexandra Zaïnal
Sur une idée originale de : Baudouin d'Aumeries
Assistance à la programmation : Marc-Olivier Méhu
Soutien technique & logistique : Manuel Goepfert

Contact : metmap@orbifly.com




SOURCES & CREDITS :

   NOAA       Earth
Advisory